Time;durP1;ratioP1;P1;durP2;ratioP2;P2;SDS_P1;SDS_P2;PMS_P1;PMS_P2;Temp;Humidity;BMP_temperature;BMP_pressure;BME280_temperature;BME280_humidity;BME280_pressure;Samples;Min_cycle;Max_cycle;Signal;HPM_P1;HPM_P2
2021/09/30 00:02:45;;;;;;;9.43;2.30;;;;;;;9.76;96.19;101425.84;10158262;28;20046;-71
2021/09/30 00:07:41;;;;;;;5.85;2.00;;;;;;;9.76;97.26;101425.84;10169796;28;20042;-71
2021/09/30 00:12:46;;;;;;;7.40;2.00;;;;;;;9.79;97.23;101444.34;10158544;28;20043;-70
2021/09/30 00:18:06;;;;;;;9.93;2.05;;;;;;;9.75;97.23;101425.03;10157922;28;20050;-69
2021/09/30 00:49:24;;;;;;;8.70;2.13;;;;;;;9.73;97.93;101449.09;10166884;28;20073;-68
2021/09/30 00:54:37;;;;;;;10.48;3.10;;;;;;;9.72;98.58;101428.34;10148654;28;20050;-69
2021/09/30 03:00:50;;;;;;;10.43;1.42;;;;;;;9.64;95.97;101555.41;10163918;28;20673;-70
2021/09/30 03:05:53;;;;;;;11.10;1.60;;;;;;;9.63;95.99;101563.88;10160734;28;20046;-71
2021/09/30 03:10:50;;;;;;;9.13;1.50;;;;;;;9.61;95.59;101566.13;10164604;28;20201;-71
2021/09/30 03:15:57;;;;;;;9.77;1.00;;;;;;;9.63;94.13;101577.53;10156658;28;20516;-70
2021/09/30 03:25:56;;;;;;;10.00;1.27;;;;;;;9.64;93.18;101592.84;10168869;28;20046;-71
2021/09/30 03:30:54;;;;;;;6.25;0.80;;;;;;;9.64;92.15;101606.50;10166317;28;20069;-70
2021/09/30 03:35:51;;;;;;;10.35;1.50;;;;;;;9.64;91.34;101579.19;10144849;28;20075;-70
2021/09/30 03:40:48;;;;;;;9.07;1.17;;;;;;;9.67;91.20;101603.16;10141712;28;20945;-69
2021/09/30 03:45:45;;;;;;;12.80;1.13;;;;;;;9.66;90.46;101607.81;10165455;28;20045;-71
2021/09/30 03:56:07;;;;;;;8.13;1.38;;;;;;;9.61;90.41;101634.38;10159354;28;20048;-72
2021/09/30 04:01:04;;;;;;;7.57;1.48;;;;;;;9.60;90.14;101621.81;10137009;28;20102;-70
2021/09/30 04:06:01;;;;;;;10.05;1.20;;;;;;;9.60;90.13;101627.28;10140942;28;20077;-70
2021/09/30 04:10:58;;;;;;;7.60;1.05;;;;;;;9.57;89.66;101625.94;10145655;28;20046;-70
2021/09/30 04:15:55;;;;;;;11.23;1.42;;;;;;;9.57;89.51;101636.06;10135814;28;20077;-71
2021/09/30 04:20:51;;;;;;;9.75;1.00;;;;;;;9.57;89.05;101653.25;10139674;28;20062;-71
2021/09/30 04:25:48;;;;;;;9.32;1.48;;;;;;;9.54;89.55;101628.41;10143504;28;20046;-72
2021/09/30 04:30:45;;;;;;;7.90;1.05;;;;;;;9.60;89.27;101651.84;10144820;28;20066;-71
2021/09/30 04:35:42;;;;;;;11.48;1.00;;;;;;;9.59;89.66;101661.97;10146077;28;20133;-72
2021/09/30 04:40:38;;;;;;;10.95;1.83;;;;;;;9.59;88.57;101655.69;10139277;28;20046;-72
2021/09/30 04:45:35;;;;;;;4.65;1.13;;;;;;;9.60;88.73;101673.69;10155751;28;20105;-72
2021/09/30 04:50:31;;;;;;;6.32;0.80;;;;;;;9.61;88.71;101669.88;10155918;28;20070;-71
2021/09/30 04:55:28;;;;;;;7.15;0.90;;;;;;;9.61;88.06;101686.25;10149873;28;20142;-71
2021/09/30 05:00:25;;;;;;;9.43;1.30;;;;;;;9.64;87.62;101691.13;10154719;28;20046;-71
2021/09/30 05:05:23;;;;;;;11.25;1.40;;;;;;;9.63;87.97;101689.50;10156176;28;20050;-71
2021/09/30 05:10:21;;;;;;;11.48;2.38;;;;;;;9.62;88.68;101715.19;10145433;28;20108;-70
2021/09/30 05:15:18;;;;;;;8.90;1.73;;;;;;;9.61;87.99;101713.56;10151367;28;20050;-71
2021/09/30 05:20:14;;;;;;;7.60;1.42;;;;;;;9.55;88.29;101709.25;10138967;28;20043;-72
2021/09/30 05:25:11;;;;;;;5.68;0.90;;;;;;;9.54;87.17;101713.06;10147474;28;20476;-70
2021/09/30 05:30:10;;;;;;;10.57;1.08;;;;;;;9.52;87.67;101720.75;10168575;28;20050;-70
2021/09/30 05:35:07;;;;;;;9.48;1.27;;;;;;;9.48;87.19;101725.94;10172328;28;20078;-71
2021/09/30 05:40:04;;;;;;;11.02;1.40;;;;;;;9.43;86.08;101721.34;10159500;28;20492;-68
2021/09/30 05:45:06;;;;;;;15.70;1.50;;;;;;;9.42;86.90;101729.81;10146923;28;20460;-68
2021/09/30 05:50:03;;;;;;;6.35;0.90;;;;;;;9.44;86.11;101733.06;10155382;28;20050;-70
2021/09/30 05:55:00;;;;;;;10.88;1.52;;;;;;;9.44;87.40;101739.34;10152804;28;20124;-68
2021/09/30 06:00:08;;;;;;;9.25;1.38;;;;;;;9.41;86.65;101737.19;10159292;28;20074;-70
2021/09/30 06:15:23;;;;;;;7.68;1.00;;;;;;;9.37;86.37;101765.34;10155410;28;20085;-70
2021/09/30 06:20:20;;;;;;;;;;;;;;;9.31;85.70;101761.84;10162816;28;20090;-70
2021/09/30 06:25:18;;;;;;;7.90;0.95;;;;;;;9.35;86.49;101776.56;10170392;28;19979;-73
2021/09/30 06:30:15;;;;;;;8.30;1.30;;;;;;;9.39;86.00;101776.78;10164491;28;20046;-71
2021/09/30 06:35:16;;;;;;;7.45;1.13;;;;;;;9.41;85.21;101786.31;10173922;28;20049;-70
2021/09/30 06:40:13;;;;;;;7.32;1.13;;;;;;;9.46;86.18;101797.19;10165434;28;20180;-69
2021/09/30 06:45:09;;;;;;;13.98;1.45;;;;;;;9.52;85.87;101808.91;10157052;28;20042;-70
2021/09/30 06:50:10;;;;;;;13.52;1.83;;;;;;;9.55;85.63;101823.91;10160765;28;20526;-70
2021/09/30 06:55:11;;;;;;;5.13;1.10;;;;;;;9.61;85.54;101820.06;10157382;28;20129;-68
2021/09/30 07:00:09;;;;;;;109.25;4.68;;;;;;;9.65;85.74;101845.66;10165727;28;20050;-69
2021/09/30 07:05:09;;;;;;;8.65;1.48;;;;;;;9.69;86.19;101835.81;10145701;28;20053;-75
2021/09/30 07:10:09;;;;;;;14.65;1.70;;;;;;;9.75;85.28;101842.88;10164172;28;20053;-70
2021/09/30 07:15:06;;;;;;;8.45;1.35;;;;;;;9.83;84.61;101880.50;10156341;28;20045;-72
2021/09/30 07:20:04;;;;;;;6.50;1.10;;;;;;;9.79;84.79;101857.56;10169985;28;20058;-69
2021/09/30 07:25:00;;;;;;;7.50;1.42;;;;;;;9.81;85.00;101866.31;10155430;28;20220;-69
2021/09/30 07:29:57;;;;;;;11.70;1.40;;;;;;;9.85;85.27;101861.91;10156435;28;20058;-71
2021/09/30 07:34:54;;;;;;;4.47;1.05;;;;;;;9.89;84.27;101868.44;10156893;28;20072;-69
2021/09/30 07:39:51;;;;;;;9.65;1.70;;;;;;;9.94;84.75;101864.03;10155969;28;20133;-70
2021/09/30 07:44:47;;;;;;;8.15;1.40;;;;;;;9.99;84.07;101878.47;10154574;28;20078;-70
2021/09/30 07:49:43;;;;;;;7.38;1.10;;;;;;;10.14;83.41;101895.84;10155598;28;20078;-70
2021/09/30 07:54:40;;;;;;;8.02;0.98;;;;;;;10.27;83.76;101896.00;10151201;28;20448;-69
2021/09/30 07:59:38;;;;;;;4.18;0.90;;;;;;;10.45;82.61;101890.97;10162562;28;20038;-71
2021/09/30 08:04:34;;;;;;;6.90;1.00;;;;;;;10.45;81.49;101907.38;10159007;28;20077;-70
2021/09/30 08:09:32;;;;;;;7.95;1.20;;;;;;;10.58;80.38;101914.88;10160499;28;20057;-69
2021/09/30 08:14:28;;;;;;;6.70;1.52;;;;;;;10.73;80.94;101913.91;10154324;28;20089;-69
2021/09/30 08:19:25;;;;;;;4.25;0.95;;;;;;;10.72;80.30;101918.59;10149634;28;20077;-71
2021/09/30 08:24:21;;;;;;;6.25;1.23;;;;;;;10.74;80.02;101919.13;10151826;28;20046;-70
2021/09/30 08:29:19;;;;;;;8.75;1.05;;;;;;;10.78;79.62;101922.06;10144205;28;20051;-70
2021/09/30 08:34:15;;;;;;;5.80;1.10;;;;;;;10.90;79.68;101935.34;10145772;28;20050;-70
2021/09/30 08:39:13;;;;;;;8.15;1.35;;;;;;;11.12;79.05;101951.28;10150758;28;20100;-70
2021/09/30 08:44:09;;;;;;;5.43;1.02;;;;;;;11.27;78.28;101950.25;10153372;28;20133;-70
2021/09/30 08:49:05;;;;;;;7.45;1.00;;;;;;;11.47;76.53;101949.19;10150274;28;20046;-71
2021/09/30 08:54:03;;;;;;;8.13;0.98;;;;;;;11.54;77.49;101949.66;10153211;28;20049;-72
2021/09/30 08:59:13;;;;;;;9.50;1.30;;;;;;;11.55;76.75;101938.38;10158028;28;20446;-69
2021/09/30 09:04:18;;;;;;;5.40;1.00;;;;;;;11.55;76.98;101984.94;10147631;28;20129;-69
2021/09/30 09:09:29;;;;;;;7.38;0.82;;;;;;;11.57;76.39;101966.28;10151633;28;20509;-69
2021/09/30 09:14:28;;;;;;;9.30;1.10;;;;;;;11.51;75.56;101956.53;10151388;28;20042;-69
2021/09/30 09:19:37;;;;;;;6.82;1.30;;;;;;;11.48;76.73;101987.22;10135635;28;20124;-69
2021/09/30 09:24:36;;;;;;;8.60;1.10;;;;;;;11.53;76.40;101986.34;10147413;28;20050;-70
2021/09/30 09:29:32;;;;;;;9.45;1.27;;;;;;;11.54;74.65;101988.00;10156895;28;20077;-70
2021/09/30 09:34:39;;;;;;;10.35;1.33;;;;;;;11.70;74.73;101980.41;10139348;28;20471;-70
2021/09/30 09:39:36;;;;;;;8.70;1.52;;;;;;;11.72;74.16;102005.56;10149199;28;20046;-70
2021/09/30 09:44:32;;;;;;;10.63;1.85;;;;;;;11.70;74.62;101985.88;10147673;28;20244;-69
2021/09/30 09:49:29;;;;;;;7.20;1.40;;;;;;;11.88;73.53;101987.84;10154851;28;20109;-69
2021/09/30 09:54:29;;;;;;;8.52;1.27;;;;;;;11.93;73.25;101987.78;10156379;28;20096;-69
2021/09/30 09:59:30;;;;;;;11.70;1.50;;;;;;;12.10;72.77;102000.16;10170990;28;20552;-69
2021/09/30 10:04:27;;;;;;;11.45;1.85;;;;;;;12.38;72.67;102018.34;10168836;28;20074;-69
2021/09/30 10:09:24;;;;;;;15.20;1.85;;;;;;;12.61;71.05;102015.81;10160798;28;20096;-70
2021/09/30 10:14:21;;;;;;;8.25;1.50;;;;;;;12.87;72.26;102012.63;10157057;28;20070;-69
2021/09/30 10:19:17;;;;;;;9.82;1.80;;;;;;;13.13;71.98;102022.00;10173032;28;20046;-69
2021/09/30 10:24:17;;;;;;;12.23;2.88;;;;;;;12.95;70.62;101999.03;10160289;28;20078;-70
2021/09/30 10:29:45;;;;;;;8.07;1.45;;;;;;;12.97;69.14;102023.41;10151595;28;20042;-69
2021/09/30 10:34:43;;;;;;;11.23;1.98;;;;;;;13.03;69.48;102027.69;10165272;28;20046;-69
2021/09/30 10:39:42;;;;;;;8.13;1.50;;;;;;;13.04;69.71;102013.69;10154998;28;20150;-70
2021/09/30 10:44:39;;;;;;;12.98;2.53;;;;;;;13.20;68.74;102010.63;10167199;28;20531;-69
2021/09/30 10:49:56;;;;;;;10.65;1.80;;;;;;;13.40;68.88;102025.94;10156240;28;20054;-69
2021/09/30 10:55:18;;;;;;;9.35;1.55;;;;;;;13.48;66.85;102022.47;10155645;28;20046;-69
2021/09/30 11:00:17;;;;;;;10.82;1.80;;;;;;;13.74;66.32;102019.19;10157023;28;20078;-69
2021/09/30 11:05:21;;;;;;;16.50;2.30;;;;;;;13.81;65.30;102019.59;10160659;28;20073;-69
2021/09/30 11:10:25;;;;;;;10.93;1.83;;;;;;;13.81;64.32;102028.66;10178407;28;20495;-70
2021/09/30 11:15:21;;;;;;;14.77;1.67;;;;;;;13.70;65.09;102023.69;10163968;28;20159;-69
2021/09/30 11:20:37;;;;;;;9.82;1.25;;;;;;;13.62;64.40;102045.28;10166027;28;20050;-69
2021/09/30 11:26:04;;;;;;;11.27;1.55;;;;;;;13.46;64.65;102039.28;10159263;28;20077;-69
2021/09/30 11:31:20;;;;;;;6.55;0.90;;;;;;;13.53;64.17;102036.13;10154030;28;20107;-69
2021/09/30 11:36:17;;;;;;;11.68;1.42;;;;;;;13.63;63.81;102046.88;10154015;28;20044;-69
2021/09/30 11:41:14;;;;;;;7.97;1.50;;;;;;;13.98;62.48;102047.25;10160859;28;20721;-69
2021/09/30 11:46:32;;;;;;;9.63;2.03;;;;;;;14.30;62.24;102057.25;10149519;28;20046;-70
2021/09/30 11:51:44;;;;;;;9.80;1.58;;;;;;;14.43;61.54;102052.81;10156927;28;20073;-69
2021/09/30 11:56:43;;;;;;;7.43;1.40;;;;;;;14.73;58.28;102058.75;10159575;28;20081;-70
2021/09/30 12:01:44;;;;;;;7.10;1.40;;;;;;;15.23;57.69;102061.31;10175039;28;20046;-69
2021/09/30 12:06:45;;;;;;;15.32;1.67;;;;;;;15.37;55.95;102058.47;10163431;28;20104;-69
2021/09/30 12:12:00;;;;;;;11.35;1.75;;;;;;;15.57;54.42;102088.22;10155280;28;20116;-70
2021/09/30 12:17:01;;;;;;;8.85;1.40;;;;;;;15.54;53.31;102068.75;10156030;28;20046;-69
2021/09/30 12:21:58;;;;;;;6.20;0.98;;;;;;;15.57;51.04;102088.22;10164045;28;20038;-70
2021/09/30 12:26:56;;;;;;;6.97;1.17;;;;;;;15.56;50.85;102083.03;10167151;28;20070;-69
2021/09/30 12:32:09;;;;;;;6.35;1.15;;;;;;;15.38;52.18;102084.88;10152881;28;20420;-69
2021/09/30 12:37:06;;;;;;;8.60;1.25;;;;;;;14.85;53.29;102092.06;10146584;28;20702;-69
2021/09/30 12:42:16;;;;;;;8.80;1.30;;;;;;;15.77;51.95;102089.59;10158750;28;20088;-68
2021/09/30 12:47:31;;;;;;;5.82;1.02;;;;;;;16.66;47.73;102105.16;10157068;28;20073;-69
2021/09/30 12:52:28;;;;;;;9.13;1.38;;;;;;;17.90;46.54;102084.00;10154052;28;20046;-68
2021/09/30 12:57:33;;;;;;;7.85;1.10;;;;;;;17.14;46.83;102090.31;10149465;28;20420;-68
2021/09/30 13:02:29;;;;;;;8.70;2.00;;;;;;;17.01;47.16;102090.19;10166334;28;20065;-68
2021/09/30 13:07:46;;;;;;;9.00;1.60;;;;;;;16.37;47.99;102087.28;10153179;28;20042;-68
2021/09/30 13:13:07;;;;;;;8.07;2.00;;;;;;;16.74;46.51;102093.28;10145963;28;20046;-68
2021/09/30 13:18:06;;;;;;;7.40;1.50;;;;;;;16.92;44.94;102086.63;10150244;28;20042;-68
2021/09/30 13:23:02;;;;;;;12.50;1.80;;;;;;;16.02;46.46;102078.97;10144563;28;20467;-68
2021/09/30 13:27:59;;;;;;;8.68;1.30;;;;;;;16.00;46.90;102078.47;10143215;28;20083;-68
2021/09/30 13:32:58;;;;;;;11.15;1.60;;;;;;;15.93;47.33;102075.38;10152678;28;20077;-68
2021/09/30 13:37:56;;;;;;;9.75;1.75;;;;;;;15.78;47.63;102069.19;10152765;28;20138;-68
2021/09/30 13:42:53;;;;;;;9.60;1.58;;;;;;;15.51;49.25;102074.91;10159692;28;20085;-67
2021/09/30 13:47:51;;;;;;;8.82;1.58;;;;;;;15.32;48.39;102072.41;10154821;28;20104;-68
2021/09/30 13:52:52;;;;;;;6.60;1.25;;;;;;;15.49;47.59;102063.38;10158441;28;20046;-68
2021/09/30 13:57:49;;;;;;;8.48;1.50;;;;;;;15.74;48.99;102057.16;10138574;28;20074;-68
2021/09/30 14:02:47;;;;;;;9.82;1.50;;;;;;;15.78;47.61;102058.16;10158463;28;20050;-68
2021/09/30 14:07:45;;;;;;;7.65;1.60;;;;;;;16.11;49.18;102054.97;10151329;28;20043;-68
2021/09/30 14:12:43;;;;;;;9.07;1.40;;;;;;;16.05;47.42;102047.16;10160017;28;20046;-68
2021/09/30 14:17:40;;;;;;;10.95;1.42;;;;;;;15.97;47.31;102043.28;10151032;28;20054;-68
2021/09/30 14:22:38;;;;;;;7.22;1.67;;;;;;;16.10;47.77;102042.28;10153745;28;20054;-68
2021/09/30 14:27:35;;;;;;;8.90;1.25;;;;;;;16.10;47.92;102041.47;10155072;28;20601;-68
2021/09/30 14:32:31;;;;;;;8.55;1.58;;;;;;;15.86;47.24;102058.50;10152386;28;20405;-68
2021/09/30 14:37:28;;;;;;;8.05;1.27;;;;;;;15.64;47.40;102034.56;10151179;28;20117;-68
2021/09/30 14:42:27;;;;;;;10.65;1.17;;;;;;;15.55;47.48;102046.38;10157906;28;20042;-68
2021/09/30 14:47:23;;;;;;;6.72;1.40;;;;;;;15.44;48.81;102047.78;10152118;28;20500;-68
2021/09/30 14:52:20;;;;;;;5.72;1.30;;;;;;;15.32;49.06;102047.59;10153019;28;20451;-68
2021/09/30 14:57:17;;;;;;;4.78;1.30;;;;;;;15.20;49.85;102067.47;10151548;28;20574;-68
2021/09/30 15:02:13;;;;;;;7.80;1.33;;;;;;;15.11;49.26;102059.16;10156197;28;20113;-70
2021/09/30 15:07:10;;;;;;;11.70;1.58;;;;;;;15.08;50.32;102059.78;10142353;28;20057;-70
2021/09/30 15:12:07;;;;;;;8.98;1.40;;;;;;;15.01;51.35;102064.09;10135518;28;20046;-70
2021/09/30 15:17:23;;;;;;;5.57;1.10;;;;;;;14.71;48.85;102063.75;10147736;28;20057;-68
2021/09/30 15:22:20;;;;;;;8.25;1.10;;;;;;;14.78;49.32;102069.63;10157856;28;20073;-69
2021/09/30 15:27:17;;;;;;;6.18;1.52;;;;;;;15.05;49.85;102067.88;10156457;28;20054;-67
2021/09/30 15:32:13;;;;;;;6.95;1.27;;;;;;;15.17;48.60;102065.34;10153914;28;20137;-67
2021/09/30 15:37:10;;;;;;;8.57;1.08;;;;;;;15.26;48.41;102071.69;10151050;28;20168;-68
2021/09/30 15:42:11;;;;;;;8.50;1.30;;;;;;;15.27;49.03;102058.72;10152297;28;20038;-68
2021/09/30 15:47:08;;;;;;;10.27;1.17;;;;;;;15.28;49.62;102065.88;10146701;28;20062;-68
2021/09/30 15:52:04;;;;;;;7.20;1.05;;;;;;;14.80;49.99;102056.38;10150793;28;20046;-67
2021/09/30 15:57:02;;;;;;;7.80;1.60;;;;;;;14.75;50.53;102058.44;10151580;28;20440;-68
2021/09/30 16:01:59;;;;;;;7.40;1.00;;;;;;;14.59;50.82;102066.25;10151585;28;20054;-68
2021/09/30 16:06:55;;;;;;;9.65;1.80;;;;;;;14.57;51.88;102068.50;10149523;28;20080;-68
2021/09/30 16:11:52;;;;;;;8.80;1.17;;;;;;;14.50;52.18;102080.75;10157065;28;20128;-68
2021/09/30 16:16:49;;;;;;;8.65;1.42;;;;;;;14.32;51.17;102067.97;10149025;28;20078;-68
2021/09/30 16:21:47;;;;;;;8.88;1.27;;;;;;;14.29;51.69;102068.56;10154363;28;20141;-68
2021/09/30 16:26:45;;;;;;;7.00;1.45;;;;;;;14.22;51.82;102073.69;10152489;28;20082;-68
2021/09/30 16:31:41;;;;;;;5.40;1.02;;;;;;;14.12;51.98;102073.94;10150138;28;20073;-68
2021/09/30 16:36:40;;;;;;;7.03;1.20;;;;;;;14.07;52.71;102070.16;10149206;28;20049;-68
2021/09/30 16:41:36;;;;;;;6.78;1.10;;;;;;;14.01;52.81;102068.63;10150169;28;20042;-68
2021/09/30 16:46:33;;;;;;;6.38;1.30;;;;;;;13.87;52.82;102062.34;10131958;28;20080;-68
2021/09/30 16:51:31;;;;;;;5.78;1.17;;;;;;;13.90;53.88;102067.22;10151221;28;20777;-68
2021/09/30 16:56:27;;;;;;;9.27;1.67;;;;;;;13.78;53.46;102070.50;10154055;28;20505;-68
2021/09/30 17:01:24;;;;;;;7.65;1.33;;;;;;;13.72;54.11;102076.41;10153450;28;20058;-68
2021/09/30 17:06:20;;;;;;;9.90;1.23;;;;;;;13.66;54.14;102079.25;10155372;28;20048;-68
2021/09/30 17:11:19;;;;;;;10.13;1.48;;;;;;;13.59;55.16;102078.84;10160810;28;20488;-68
2021/09/30 17:16:15;;;;;;;7.95;1.35;;;;;;;13.45;54.28;102080.78;10160226;28;20049;-68
2021/09/30 17:21:12;;;;;;;8.60;1.48;;;;;;;13.47;54.87;102082.09;10149161;28;20054;-68
2021/09/30 17:26:09;;;;;;;7.82;1.42;;;;;;;13.42;54.84;102084.13;10156387;28;20046;-67
2021/09/30 17:31:05;;;;;;;5.15;1.20;;;;;;;13.38;54.86;102083.13;10163534;28;20066;-68
2021/09/30 17:36:03;;;;;;;9.05;1.20;;;;;;;13.38;55.61;102078.44;10153583;28;20560;-68
2021/09/30 17:41:00;;;;;;;9.80;2.10;;;;;;;13.34;55.54;102076.59;10152864;28;20156;-68
2021/09/30 17:45:56;;;;;;;7.00;1.70;;;;;;;13.35;55.68;102080.97;10158114;28;20129;-67
2021/09/30 17:50:53;;;;;;;8.27;1.90;;;;;;;13.20;55.68;102082.84;10147565;28;20401;-68
2021/09/30 17:55:51;;;;;;;10.55;1.75;;;;;;;13.23;55.64;102086.94;10166434;28;20050;-68
2021/09/30 18:00:48;;;;;;;10.10;1.35;;;;;;;13.23;55.58;102097.94;10151312;28;20412;-68
2021/09/30 18:05:44;;;;;;;5.25;1.30;;;;;;;13.19;55.13;102094.94;10148725;28;20046;-68
2021/09/30 18:10:41;;;;;;;9.23;1.38;;;;;;;13.19;55.43;102108.69;10147371;28;20193;-68
2021/09/30 18:15:37;;;;;;;10.23;1.50;;;;;;;13.13;54.88;102092.59;10136505;28;20847;-68
2021/09/30 18:20:40;;;;;;;10.43;1.30;;;;;;;13.14;55.47;102089.56;10150653;28;20065;-68
2021/09/30 18:25:37;;;;;;;7.85;1.35;;;;;;;13.11;56.16;102089.34;10151939;28;20073;-68
2021/09/30 18:30:33;;;;;;;8.80;1.67;;;;;;;13.12;56.99;102091.78;10153219;28;20050;-68
2021/09/30 18:35:30;;;;;;;7.95;2.08;;;;;;;13.11;57.20;102101.16;10149241;28;20082;-68
2021/09/30 18:40:29;;;;;;;7.43;1.67;;;;;;;13.11;57.14;102092.91;10152431;28;20093;-69
2021/09/30 18:45:26;;;;;;;7.00;1.80;;;;;;;13.08;57.37;102095.44;10135264;28;20566;-69
2021/09/30 18:50:22;;;;;;;4.50;1.25;;;;;;;13.01;57.19;102106.81;10141623;28;20078;-69
2021/09/30 18:55:19;;;;;;;7.53;1.60;;;;;;;12.99;57.72;102106.28;10143601;28;20094;-69
2021/09/30 19:00:15;;;;;;;6.93;1.48;;;;;;;12.99;57.77;102111.78;10152261;28;20046;-69
2021/09/30 19:05:12;;;;;;;5.30;1.30;;;;;;;12.99;58.55;102107.09;10146453;28;20050;-68
2021/09/30 19:10:09;;;;;;;7.35;1.60;;;;;;;12.94;58.18;102103.63;10144806;28;20046;-69
2021/09/30 19:15:09;;;;;;;7.55;1.70;;;;;;;12.91;59.28;102102.31;10146610;28;20078;-68
2021/09/30 19:20:11;;;;;;;5.22;0.93;;;;;;;12.78;57.94;102095.63;10145703;28;20050;-69
2021/09/30 19:25:10;;;;;;;9.47;1.57;;;;;;;12.82;58.61;102087.63;10143734;28;20054;-69
2021/09/30 19:30:07;;;;;;;9.02;1.60;;;;;;;12.79;59.75;102105.50;10144299;28;20057;-69
2021/09/30 19:35:05;;;;;;;9.18;1.80;;;;;;;12.81;58.50;102096.97;10145611;28;20125;-69
2021/09/30 19:40:03;;;;;;;7.75;1.48;;;;;;;12.77;58.85;102099.50;10156277;28;20050;-69
2021/09/30 19:45:00;;;;;;;10.85;2.20;;;;;;;12.74;59.00;102111.09;10145254;28;20089;-69
2021/09/30 19:49:57;;;;;;;9.60;1.35;;;;;;;12.67;58.43;102107.91;10142128;28;20054;-69
2021/09/30 19:54:53;;;;;;;7.82;1.42;;;;;;;12.63;58.20;102106.88;10141818;28;20046;-68
2021/09/30 19:59:50;;;;;;;7.68;1.23;;;;;;;12.63;58.46;102115.09;10145164;28;20045;-68
2021/09/30 20:04:47;;;;;;;10.02;1.70;;;;;;;12.57;58.12;102108.03;10150205;28;20050;-68
2021/09/30 20:09:44;;;;;;;6.53;1.30;;;;;;;12.63;58.70;102106.88;10149406;28;20129;-68
2021/09/30 20:14:40;;;;;;;7.38;1.50;;;;;;;12.58;58.52;102099.53;10157103;28;20104;-68
2021/09/30 20:19:37;;;;;;;7.22;1.50;;;;;;;12.61;58.43;102098.13;10157240;28;20093;-68
2021/09/30 20:24:35;;;;;;;10.02;1.30;;;;;;;12.58;58.29;102099.53;10149019;28;20049;-68
2021/09/30 20:29:32;;;;;;;6.60;1.20;;;;;;;12.58;58.42;102093.22;10151626;28;20143;-68
2021/09/30 20:34:29;;;;;;;6.78;1.35;;;;;;;12.55;59.12;102083.63;10155393;28;20085;-69
2021/09/30 20:39:26;;;;;;;7.63;1.52;;;;;;;12.55;58.14;102088.31;10148884;28;20045;-71
2021/09/30 20:44:22;;;;;;;6.65;1.00;;;;;;;12.58;58.92;102087.75;10144668;28;20042;-69
2021/09/30 20:49:19;;;;;;;4.22;1.33;;;;;;;12.58;59.09;102082.25;10148135;28;20038;-70
2021/09/30 20:54:19;;;;;;;7.45;1.40;;;;;;;12.51;59.44;102077.16;10165267;28;20039;-70
2021/09/30 20:59:16;;;;;;;9.40;1.38;;;;;;;12.50;59.30;102067.25;10163473;28;20072;-70
2021/09/30 21:04:13;;;;;;;6.38;1.38;;;;;;;12.49;58.75;102068.41;10171057;28;20061;-69
2021/09/30 21:09:09;;;;;;;7.28;1.73;;;;;;;12.46;58.96;102058.00;10156677;28;20042;-70
2021/09/30 21:14:06;;;;;;;6.20;1.20;;;;;;;12.45;59.64;102050.09;10152748;28;20058;-69
2021/09/30 21:19:03;;;;;;;12.55;1.83;;;;;;;12.41;60.44;102050.66;10149175;28;20097;-69
2021/09/30 21:23:59;;;;;;;7.47;1.55;;;;;;;12.39;60.92;102052.91;10148761;28;20113;-68
2021/09/30 21:28:57;;;;;;;8.32;1.55;;;;;;;12.36;61.66;102050.75;10145773;28;20035;-67
2021/09/30 21:33:54;;;;;;;7.60;1.20;;;;;;;12.37;61.98;102057.88;10151824;28;20046;-67
2021/09/30 21:38:51;;;;;;;9.43;1.33;;;;;;;12.34;63.34;102054.91;10148242;28;20043;-69
2021/09/30 21:43:48;;;;;;;5.40;1.50;;;;;;;12.26;62.72;102052.84;10154180;28;20125;-69
2021/09/30 21:48:44;;;;;;;8.93;1.50;;;;;;;12.18;62.75;102046.06;10138913;28;20062;-68
2021/09/30 21:53:41;;;;;;;6.55;1.50;;;;;;;12.16;63.23;102042.81;10154582;28;20046;-68
2021/09/30 21:58:37;;;;;;;9.25;2.00;;;;;;;12.17;64.47;102033.50;10159147;28;20043;-68
2021/09/30 22:03:34;;;;;;;7.68;1.63;;;;;;;12.18;64.37;102029.63;10162679;28;20125;-69
2021/09/30 22:08:31;;;;;;;8.68;1.30;;;;;;;12.18;64.36;102035.94;10158455;28;21588;-69
2021/09/30 22:13:28;;;;;;;6.25;1.50;;;;;;;12.10;65.49;102030.31;10149558;28;20093;-69
2021/09/30 22:18:25;;;;;;;5.95;1.42;;;;;;;12.15;65.16;102030.22;10157996;28;20400;-69
2021/09/30 22:23:22;;;;;;;7.47;1.52;;;;;;;12.11;65.59;102029.19;10163767;28;20104;-68
2021/09/30 22:28:18;;;;;;;7.53;1.42;;;;;;;12.09;65.50;102026.75;10149628;28;20058;-69
2021/09/30 22:33:17;;;;;;;5.38;1.30;;;;;;;12.08;66.34;102013.34;10160441;28;20050;-69
2021/09/30 22:38:13;;;;;;;8.57;1.83;;;;;;;11.98;65.99;102011.56;10159756;28;20109;-69
2021/09/30 22:43:10;;;;;;;7.60;1.80;;;;;;;11.95;65.46;102010.22;10154450;28;20101;-68
2021/09/30 22:48:06;;;;;;;6.05;1.25;;;;;;;11.95;66.69;102009.38;10160125;28;20093;-68
2021/09/30 22:53:03;;;;;;;6.07;1.42;;;;;;;11.89;66.15;102000.44;10151990;28;20042;-69
2021/09/30 22:57:59;;;;;;;7.10;1.40;;;;;;;11.90;65.68;101993.84;10152039;28;20074;-69
2021/09/30 23:02:56;;;;;;;7.38;1.27;;;;;;;11.90;66.26;101985.59;10153312;28;20046;-68
2021/09/30 23:07:53;;;;;;;7.65;1.40;;;;;;;11.90;66.64;101980.13;10156250;28;20042;-68
2021/09/30 23:12:49;;;;;;;5.63;1.40;;;;;;;11.87;67.21;101978.00;10153544;28;20082;-68
2021/09/30 23:17:46;;;;;;;8.70;1.30;;;;;;;11.88;66.16;101976.91;10140695;28;20062;-68
2021/09/30 23:22:43;;;;;;;7.07;1.23;;;;;;;11.89;66.90;101972.22;10157660;28;20038;-68
2021/09/30 23:27:40;;;;;;;4.68;1.20;;;;;;;11.78;67.78;101963.28;10150216;28;20157;-68
2021/09/30 23:32:36;;;;;;;10.00;1.58;;;;;;;11.79;67.52;101962.19;10151535;28;20100;-68
2021/09/30 23:37:33;;;;;;;8.60;1.00;;;;;;;11.76;67.24;101958.09;10151337;28;20066;-67
2021/09/30 23:42:30;;;;;;;6.72;1.20;;;;;;;11.84;67.05;101953.91;10153002;28;20066;-68
2021/09/30 23:47:26;;;;;;;3.80;1.00;;;;;;;11.83;66.67;101946.78;10149718;28;20101;-68
2021/09/30 23:52:23;;;;;;;7.75;1.40;;;;;;;11.83;66.88;101946.78;10132424;28;20500;-68
2021/09/30 23:57:19;;;;;;;4.65;1.15;;;;;;;11.80;67.17;101930.94;10153345;28;20054;-69
